createdAt,value
2019-01-16T00:00:49.605Z,10.97
2019-01-16T00:03:20.445Z,10.80
2019-01-16T00:05:50.209Z,11.03
2019-01-16T00:08:20.906Z,12.07
2019-01-16T00:10:51.474Z,12.70
2019-01-16T00:13:21.997Z,10.80
2019-01-16T00:15:52.554Z,10.33
2019-01-16T00:18:21.442Z,11.87
2019-01-16T00:20:51.866Z,10.60
2019-01-16T00:23:22.319Z,12.03
2019-01-16T00:25:52.889Z,11.43
2019-01-16T00:28:23.390Z,11.10
2019-01-16T00:30:53.879Z,11.27
2019-01-16T00:33:24.416Z,11.33
2019-01-16T00:35:55.044Z,12.50
2019-01-16T00:38:25.640Z,12.80
2019-01-16T00:40:56.366Z,12.20
2019-01-16T00:43:27.053Z,11.30
2019-01-16T00:45:57.550Z,12.53
2019-01-16T00:48:28.674Z,10.83
2019-01-16T00:50:59.136Z,11.23
2019-01-16T00:53:29.539Z,12.17
2019-01-16T00:55:59.943Z,12.77
2019-01-16T00:58:29.843Z,12.10
2019-01-16T01:01:01.552Z,12.00
2019-01-16T01:03:32.201Z,11.90
2019-01-16T01:06:02.891Z,11.43
2019-01-16T01:08:33.500Z,11.60
2019-01-16T01:11:04.715Z,11.80
2019-01-16T01:13:35.490Z,11.10
2019-01-16T01:16:06.715Z,12.10
2019-01-16T01:18:40.655Z,10.40
2019-01-16T01:21:07.745Z,11.10
2019-01-16T01:23:38.421Z,11.80
2019-01-16T01:26:08.300Z,10.93
2019-01-16T01:28:38.755Z,10.20
2019-01-16T01:31:08.040Z,10.20
2019-01-16T01:33:38.835Z,10.43
2019-01-16T01:36:09.299Z,10.37
2019-01-16T01:38:39.837Z,9.30
2019-01-16T01:41:10.435Z,9.70
2019-01-16T01:43:40.869Z,10.00
2019-01-16T01:46:11.301Z,9.00
2019-01-16T01:48:41.730Z,8.57
2019-01-16T01:51:12.159Z,8.90
2019-01-16T01:53:43.083Z,8.90
2019-01-16T01:56:13.654Z,9.07
2019-01-16T01:58:44.230Z,9.10
2019-01-16T02:01:14.694Z,10.03
2019-01-16T02:03:44.968Z,9.30
2019-01-16T02:06:15.618Z,9.33
2019-01-16T02:08:46.139Z,9.30
2019-01-16T02:11:16.930Z,10.03
2019-01-16T02:13:47.494Z,9.10
2019-01-16T02:16:18.080Z,9.67
2019-01-16T02:18:47.390Z,10.57
2019-01-16T02:21:18.141Z,9.50
2019-01-16T02:23:51.252Z,10.47
2019-01-16T02:26:22.130Z,10.60
2019-01-16T02:28:52.601Z,9.70
2019-01-16T02:31:25.816Z,10.20
2019-01-16T02:33:56.524Z,9.30
2019-01-16T02:36:28.555Z,10.43
2019-01-16T02:38:58.922Z,9.57
2019-01-16T02:41:31.157Z,10.50
2019-01-16T02:44:02.090Z,10.50
2019-01-16T02:46:32.578Z,10.70
2019-01-16T02:49:03.099Z,9.80
2019-01-16T02:51:33.572Z,9.93
2019-01-16T02:54:03.960Z,10.70
2019-01-16T02:56:34.527Z,8.70
2019-01-16T02:59:04.925Z,9.60
2019-01-16T03:01:35.542Z,9.30
2019-01-16T03:04:06.310Z,8.10
2019-01-16T03:06:37.324Z,9.87
2019-01-16T03:09:09.152Z,9.80
2019-01-16T03:11:39.622Z,8.13
2019-01-16T03:14:10.006Z,7.77
2019-01-16T03:16:39.004Z,8.60
2019-01-16T03:19:09.678Z,8.60
2019-01-16T03:21:40.084Z,8.53
2019-01-16T03:24:10.695Z,8.47
2019-01-16T03:26:41.090Z,8.57
2019-01-16T03:29:11.538Z,8.60
2019-01-16T03:31:42.088Z,8.10
2019-01-16T03:34:12.494Z,8.33
2019-01-16T03:36:42.901Z,8.30
2019-01-16T03:39:13.335Z,7.33
2019-01-16T03:41:43.783Z,7.13
2019-01-16T03:44:14.284Z,8.10
2019-01-16T03:46:45.112Z,6.97
2019-01-16T03:49:15.548Z,7.43
2019-01-16T03:51:46.031Z,7.10
2019-01-16T03:54:16.558Z,7.73
2019-01-16T03:56:47.221Z,7.67
2019-01-16T03:59:17.717Z,9.50
2019-01-16T04:01:48.289Z,7.27
2019-01-16T04:04:18.644Z,7.50
2019-01-16T04:06:49.908Z,6.63
2019-01-16T04:09:20.303Z,7.70
2019-01-16T04:11:50.839Z,7.63
2019-01-16T04:14:21.354Z,7.43
2019-01-16T04:16:51.747Z,7.50
2019-01-16T04:19:22.219Z,7.23
2019-01-16T04:21:52.696Z,8.17
2019-01-16T04:24:23.141Z,7.60
2019-01-16T04:26:53.583Z,7.20
2019-01-16T04:29:24.117Z,7.40
2019-01-16T04:31:54.597Z,7.00
2019-01-16T04:34:25.075Z,7.20
2019-01-16T04:36:55.540Z,5.87
2019-01-16T04:39:25.935Z,7.23
2019-01-16T04:41:56.322Z,6.67
2019-01-16T04:44:26.561Z,7.40
2019-01-16T04:46:57.200Z,6.00
2019-01-16T04:49:30.550Z,6.50
2019-01-16T04:51:59.664Z,6.03
2019-01-16T04:54:30.105Z,6.87
2019-01-16T04:57:00.508Z,6.20
2019-01-16T04:59:30.882Z,6.43
2019-01-16T05:02:01.335Z,6.50
2019-01-16T05:04:30.140Z,6.50
2019-01-16T05:07:01.234Z,6.00
2019-01-16T05:09:32.318Z,5.83
2019-01-16T05:12:02.837Z,6.70
2019-01-16T05:14:33.406Z,7.00
2019-01-16T05:17:03.801Z,5.97
2019-01-16T05:19:38.751Z,7.17
2019-01-16T05:22:06.301Z,6.50
2019-01-16T05:24:36.739Z,7.17
2019-01-16T05:27:05.668Z,6.83
2019-01-16T05:29:44.818Z,6.83
2019-01-16T05:32:15.426Z,8.00
2019-01-16T05:34:46.027Z,7.17
2019-01-16T05:37:17.519Z,6.87
2019-01-16T05:39:47.940Z,6.60
2019-01-16T05:42:18.476Z,8.30
2019-01-16T05:44:49.103Z,8.33
2019-01-16T05:47:19.585Z,8.37
2019-01-16T05:49:49.975Z,7.47
2019-01-16T05:52:20.694Z,9.37
2019-01-16T05:54:51.128Z,8.60
2019-01-16T05:57:22.012Z,8.43
2019-01-16T05:59:52.455Z,8.87
2019-01-16T06:02:22.835Z,8.57
2019-01-16T06:04:53.270Z,10.33
2019-01-16T06:07:24.252Z,10.47
2019-01-16T06:09:54.769Z,12.80
2019-01-16T06:12:25.169Z,12.23
2019-01-16T06:14:55.576Z,14.20
2019-01-16T06:17:26.019Z,10.57
2019-01-16T06:19:56.439Z,8.40
2019-01-16T06:22:26.889Z,7.90
2019-01-16T06:24:57.294Z,7.10
2019-01-16T06:27:27.913Z,7.80
2019-01-16T06:29:59.759Z,7.67
2019-01-16T06:32:30.327Z,7.27
2019-01-16T06:35:01.622Z,7.97
2019-01-16T06:37:32.175Z,8.10
2019-01-16T06:40:02.758Z,7.27
2019-01-16T06:42:33.251Z,10.23
2019-01-16T06:45:03.670Z,7.77
2019-01-16T06:47:34.106Z,7.10
2019-01-16T06:50:05.914Z,6.93
2019-01-16T06:52:36.336Z,7.20
2019-01-16T06:55:08.033Z,7.70
2019-01-16T06:57:38.441Z,6.40
2019-01-16T07:00:11.804Z,6.30
2019-01-16T07:02:42.244Z,7.03
2019-01-16T07:05:13.364Z,5.70
2019-01-16T07:07:43.923Z,6.50
2019-01-16T07:10:15.144Z,5.77
2019-01-16T07:12:45.543Z,5.50
2019-01-16T07:15:16.129Z,8.03
2019-01-16T07:17:46.588Z,11.40
2019-01-16T07:20:18.261Z,10.00
2019-01-16T07:22:49.905Z,11.17
2019-01-16T07:25:20.509Z,8.73
2019-01-16T07:27:52.008Z,9.67
2019-01-16T07:30:22.644Z,10.70
2019-01-16T07:32:53.303Z,12.30
2019-01-16T07:35:23.685Z,11.27
2019-01-16T07:37:54.198Z,9.30
2019-01-16T07:40:24.612Z,7.50
2019-01-16T07:42:55.047Z,9.00
2019-01-16T07:45:25.604Z,7.30
2019-01-16T07:47:57.069Z,9.40
2019-01-16T07:50:27.746Z,10.17
2019-01-16T07:52:58.152Z,15.03
2019-01-16T07:55:28.693Z,5.63
2019-01-16T07:57:59.158Z,8.27
2019-01-16T08:00:29.749Z,7.73
2019-01-16T08:03:01.596Z,6.13
2019-01-16T08:05:32.147Z,6.93
2019-01-16T08:08:02.574Z,5.20
2019-01-16T08:10:33.017Z,5.37
2019-01-16T08:13:03.425Z,5.20
2019-01-16T08:15:33.945Z,5.53
2019-01-16T08:18:04.358Z,5.00
2019-01-16T08:20:34.944Z,5.83
2019-01-16T08:23:05.471Z,5.37
2019-01-16T08:25:36.175Z,5.23
2019-01-16T08:28:06.882Z,5.13
2019-01-16T08:30:38.037Z,5.10
2019-01-16T08:33:08.713Z,5.20
2019-01-16T08:35:39.113Z,6.57
2019-01-16T08:38:09.663Z,5.10
2019-01-16T08:40:40.118Z,5.17
2019-01-16T08:43:10.762Z,5.17
2019-01-16T08:45:42.222Z,5.03
2019-01-16T08:48:12.630Z,5.97
2019-01-16T08:50:43.136Z,5.10
2019-01-16T08:53:14.957Z,4.50
2019-01-16T08:55:45.430Z,4.17
2019-01-16T08:58:15.846Z,4.40
2019-01-16T09:00:46.400Z,4.13
2019-01-16T09:03:17.390Z,4.67
2019-01-16T09:05:47.916Z,4.60
2019-01-16T09:08:18.475Z,4.23
2019-01-16T09:10:49.459Z,4.23
2019-01-16T09:13:21.719Z,4.07
2019-01-16T09:15:52.277Z,4.70
2019-01-16T09:18:22.649Z,5.10
2019-01-16T09:20:53.094Z,3.70
2019-01-16T09:23:23.506Z,4.50
2019-01-16T09:25:54.806Z,4.27
2019-01-16T09:28:25.197Z,4.27
2019-01-16T09:30:55.638Z,4.53
2019-01-16T09:33:26.182Z,4.10
2019-01-16T09:35:56.609Z,4.30
2019-01-16T09:38:26.580Z,4.23
2019-01-16T09:40:57.087Z,4.30
2019-01-16T09:43:27.492Z,4.37
2019-01-16T09:46:00.574Z,4.07
2019-01-16T09:48:32.362Z,3.97
2019-01-16T09:51:02.925Z,4.57
2019-01-16T09:53:33.357Z,3.90
2019-01-16T09:56:03.813Z,4.30
2019-01-16T09:58:34.289Z,5.00
2019-01-16T10:01:04.779Z,4.10
2019-01-16T10:03:35.164Z,3.67
2019-01-16T10:06:06.058Z,4.00
2019-01-16T10:08:36.500Z,5.30
2019-01-16T10:11:06.915Z,4.90
2019-01-16T10:13:37.510Z,4.90
2019-01-16T10:16:08.030Z,5.50
2019-01-16T10:18:38.471Z,5.67
2019-01-16T10:21:09.040Z,5.60
2019-01-16T10:23:39.466Z,6.17
2019-01-16T10:26:09.932Z,6.93
2019-01-16T10:28:40.483Z,6.37
2019-01-16T10:31:11.183Z,7.70
2019-01-16T10:33:41.621Z,8.30
2019-01-16T10:36:12.160Z,8.50
2019-01-16T10:38:42.613Z,9.13
2019-01-16T10:41:11.475Z,9.83
2019-01-16T10:43:41.909Z,9.07
2019-01-16T10:46:11.849Z,10.67
2019-01-16T10:48:49.565Z,11.83
2019-01-16T10:51:14.432Z,11.00
2019-01-16T10:53:44.877Z,11.30
2019-01-16T10:56:14.002Z,11.90
2019-01-16T10:58:44.481Z,13.17
2019-01-16T11:01:13.557Z,12.60
2019-01-16T11:03:44.138Z,12.00
2019-01-16T11:06:14.649Z,12.37
2019-01-16T11:08:45.080Z,11.53
2019-01-16T11:11:16.115Z,13.33
2019-01-16T11:13:46.246Z,11.23
2019-01-16T11:16:16.738Z,12.57
2019-01-16T11:18:48.602Z,12.03
2019-01-16T11:21:19.430Z,12.10
2019-01-16T11:23:49.904Z,13.03
2019-01-16T11:26:20.347Z,10.53
2019-01-16T11:28:53.766Z,12.17
2019-01-16T11:31:24.400Z,10.90
2019-01-16T11:33:54.795Z,10.87
2019-01-16T11:36:24.688Z,9.00
2019-01-16T11:38:55.146Z,11.20
2019-01-16T11:41:25.761Z,10.33
2019-01-16T11:43:56.258Z,9.10
2019-01-16T11:46:26.975Z,10.50
2019-01-16T11:48:57.658Z,9.60
2019-01-16T11:51:33.706Z,9.00
2019-01-16T11:54:00.481Z,9.60
2019-01-16T11:56:30.993Z,8.83
2019-01-16T11:59:00.879Z,8.13
2019-01-16T12:01:31.522Z,9.80
2019-01-16T12:04:02.070Z,8.90
2019-01-16T12:06:32.526Z,9.13
2019-01-16T12:09:09.079Z,8.33
2019-01-16T12:11:39.520Z,8.97
2019-01-16T12:14:09.981Z,8.50
2019-01-16T12:16:40.431Z,9.73
2019-01-16T12:19:10.866Z,9.33
2019-01-16T12:21:41.325Z,9.50
2019-01-16T12:24:12.014Z,8.47
2019-01-16T12:26:42.407Z,9.00
2019-01-16T12:29:12.904Z,8.17
2019-01-16T12:31:43.456Z,9.03
2019-01-16T12:34:13.984Z,8.23
2019-01-16T12:36:44.448Z,8.37
2019-01-16T12:39:15.235Z,7.93
2019-01-16T12:41:45.700Z,9.30
2019-01-16T12:44:16.415Z,7.57
2019-01-16T12:46:46.929Z,7.33
2019-01-16T12:49:17.347Z,8.00
2019-01-16T12:51:47.806Z,7.43
2019-01-16T12:54:18.278Z,6.80
2019-01-16T12:56:48.859Z,7.10
2019-01-16T12:59:20.110Z,6.10
2019-01-16T13:01:50.653Z,6.47
2019-01-16T13:04:21.275Z,7.40
2019-01-16T13:06:51.941Z,7.00
2019-01-16T13:09:22.402Z,6.57
2019-01-16T13:11:52.935Z,6.37
2019-01-16T13:14:26.697Z,7.40
2019-01-16T13:16:58.396Z,8.00
2019-01-16T13:19:28.236Z,7.50
2019-01-16T13:21:58.966Z,9.60
2019-01-16T13:24:28.799Z,7.60
2019-01-16T13:26:59.208Z,8.17
2019-01-16T13:29:29.660Z,9.00
2019-01-16T13:32:00.384Z,7.90
2019-01-16T13:34:30.913Z,9.00
2019-01-16T13:37:01.115Z,7.03
2019-01-16T13:39:33.005Z,8.00
2019-01-16T13:42:07.571Z,8.33
2019-01-16T13:44:38.607Z,7.27
2019-01-16T13:47:09.256Z,7.47
2019-01-16T13:49:42.411Z,7.20
2019-01-16T13:52:19.112Z,9.37
2019-01-16T13:54:49.875Z,6.97
2019-01-16T13:57:20.988Z,7.47
2019-01-16T13:59:51.465Z,7.07
2019-01-16T14:02:23.112Z,6.83
2019-01-16T14:04:55.105Z,7.03
2019-01-16T14:07:28.271Z,6.80
2019-01-16T14:10:00.178Z,7.13
2019-01-16T14:12:31.152Z,6.70
2019-01-16T14:15:01.753Z,7.73
2019-01-16T14:17:32.429Z,8.10
2019-01-16T14:20:02.996Z,8.00
2019-01-16T14:22:33.642Z,7.57
2019-01-16T14:25:04.241Z,7.60
2019-01-16T14:27:34.736Z,7.93
2019-01-16T14:30:08.756Z,7.83
2019-01-16T14:32:37.888Z,7.70
2019-01-16T14:35:09.243Z,7.63
2019-01-16T14:37:39.844Z,7.47
2019-01-16T14:40:11.866Z,8.20
2019-01-16T14:42:44.497Z,8.10
2019-01-16T14:45:15.785Z,8.80
2019-01-16T14:47:47.098Z,8.80
2019-01-16T14:50:17.680Z,10.10
2019-01-16T14:52:48.490Z,9.37
2019-01-16T14:55:20.266Z,8.40
2019-01-16T14:57:50.838Z,8.10
2019-01-16T15:00:21.610Z,8.60
2019-01-16T15:02:52.297Z,9.33
2019-01-16T15:05:23.096Z,8.37
2019-01-16T15:07:53.803Z,9.30
2019-01-16T15:10:24.415Z,9.67
2019-01-16T15:12:55.131Z,9.23
2019-01-16T15:15:25.978Z,9.90
2019-01-16T15:17:58.754Z,10.23
2019-01-16T15:20:40.257Z,9.10
2019-01-16T15:23:11.056Z,10.20
2019-01-16T15:25:42.463Z,9.37
2019-01-16T15:28:13.568Z,10.30
2019-01-16T15:33:36.914Z,9.63
2019-01-16T15:36:16.838Z,9.30
2019-01-16T15:38:48.874Z,7.90
2019-01-16T15:41:21.213Z,10.20
2019-01-16T15:49:36.617Z,10.00
2019-01-16T15:52:13.063Z,10.20
2019-01-16T15:54:55.509Z,9.60
2019-01-16T15:57:28.453Z,8.30
2019-01-16T16:00:00.881Z,9.30
2019-01-16T16:02:32.589Z,10.23
2019-01-16T16:05:03.735Z,9.57
2019-01-16T16:07:34.672Z,9.60
2019-01-16T16:10:22.885Z,10.17
2019-01-16T16:12:54.992Z,8.40
2019-01-16T16:15:25.863Z,10.00
2019-01-16T16:17:57.708Z,8.83
2019-01-16T16:20:30.368Z,10.60
2019-01-16T16:23:01.920Z,9.87
2019-01-16T16:25:34.122Z,11.33
2019-01-16T16:28:06.379Z,9.60
2019-01-16T16:30:35.795Z,10.70
2019-01-16T16:33:07.255Z,9.10
2019-01-16T16:35:41.761Z,7.63
2019-01-16T16:38:14.567Z,8.00
2019-01-16T16:40:45.464Z,8.93
2019-01-16T16:43:16.362Z,7.40
2019-01-16T16:45:48.817Z,6.73
2019-01-16T16:48:20.258Z,8.83
2019-01-16T16:50:53.715Z,9.77
2019-01-16T16:53:26.437Z,10.57
2019-01-16T16:55:59.174Z,8.10
2019-01-16T16:58:30.771Z,6.27
2019-01-16T17:01:03.532Z,6.63
2019-01-16T17:03:35.335Z,6.97
2019-01-16T17:06:07.243Z,5.67
2019-01-16T17:08:39.712Z,6.30
2019-01-16T17:11:22.804Z,6.97
2019-01-16T17:13:54.321Z,7.30
2019-01-16T17:16:26.326Z,6.43
2019-01-16T17:18:57.936Z,7.20
2019-01-16T17:21:27.696Z,6.67
2019-01-16T17:23:58.689Z,7.90
2019-01-16T17:26:29.745Z,6.50
2019-01-16T17:29:00.928Z,6.40
2019-01-16T17:31:33.070Z,5.87
2019-01-16T17:34:03.630Z,6.73
2019-01-16T17:36:34.012Z,7.13
2019-01-16T17:39:05.178Z,5.63
2019-01-16T17:41:37.237Z,7.50
2019-01-16T17:44:07.962Z,6.20
2019-01-16T17:46:41.162Z,6.30
2019-01-16T17:49:12.530Z,6.17
2019-01-16T17:51:43.224Z,5.10
2019-01-16T17:54:14.673Z,5.97
2019-01-16T17:56:48.138Z,5.60
2019-01-16T17:59:20.475Z,5.33
2019-01-16T18:01:54.744Z,7.33
2019-01-16T18:04:27.258Z,5.17
2019-01-16T18:06:58.655Z,6.20
2019-01-16T18:09:32.413Z,5.83
2019-01-16T18:12:05.050Z,5.90
2019-01-16T18:14:36.401Z,5.60
2019-01-16T18:17:08.681Z,5.33
2019-01-16T18:19:44.215Z,5.53
2019-01-16T18:22:15.252Z,5.63
2019-01-16T18:24:46.015Z,5.80
2019-01-16T18:27:16.925Z,5.90
2019-01-16T18:29:53.130Z,5.90
2019-01-16T18:32:25.791Z,6.30
2019-01-16T18:34:56.517Z,8.53
2019-01-16T18:37:27.702Z,6.00
2019-01-16T18:40:02.691Z,6.33
2019-01-16T18:42:34.724Z,5.80
2019-01-16T18:45:07.994Z,5.03
2019-01-16T18:47:39.723Z,6.17
2019-01-16T18:50:15.648Z,5.77
2019-01-16T18:53:04.769Z,5.40
2019-01-16T18:55:35.384Z,6.60
2019-01-16T18:58:06.247Z,6.07
2019-01-16T19:00:41.941Z,6.40
2019-01-16T19:03:12.461Z,6.63
2019-01-16T19:05:43.300Z,6.57
2019-01-16T19:08:14.730Z,6.10
2019-01-16T19:10:45.339Z,5.80
2019-01-16T19:13:17.385Z,6.00
2019-01-16T19:15:47.940Z,5.57
2019-01-16T19:18:19.686Z,5.93
2019-01-16T19:20:50.022Z,6.13
2019-01-16T19:23:20.703Z,6.10
2019-01-16T19:25:53.131Z,6.67
2019-01-16T19:28:23.711Z,6.50
2019-01-16T19:30:55.510Z,5.47
2019-01-16T19:33:26.850Z,7.47
2019-01-16T19:35:58.184Z,6.00
2019-01-16T19:38:29.256Z,6.27
2019-01-16T19:41:00.397Z,5.80
2019-01-16T19:43:31.467Z,6.90
2019-01-16T19:46:03.088Z,5.90
2019-01-16T19:48:33.117Z,5.30
2019-01-16T19:51:04.245Z,6.17
2019-01-16T19:53:35.102Z,5.80
2019-01-16T19:56:06.151Z,5.93
2019-01-16T19:58:36.715Z,5.40
2019-01-16T20:01:07.904Z,6.13
2019-01-16T20:03:39.096Z,7.20
2019-01-16T20:06:09.770Z,6.50
2019-01-16T20:08:40.173Z,6.73
2019-01-16T20:11:10.857Z,5.83
2019-01-16T20:13:41.563Z,6.70
2019-01-16T20:16:10.661Z,7.90
2019-01-16T20:18:41.168Z,8.40
2019-01-16T20:21:11.668Z,7.83
2019-01-16T20:23:42.174Z,8.03
2019-01-16T20:26:13.034Z,8.07
2019-01-16T20:28:44.812Z,7.50
2019-01-16T20:31:15.708Z,7.20
2019-01-16T20:33:47.183Z,6.90
2019-01-16T20:36:17.884Z,7.37
2019-01-16T20:38:48.495Z,7.33
2019-01-16T20:41:19.228Z,7.50
2019-01-16T20:43:49.934Z,8.13
2019-01-16T20:46:20.443Z,7.77
2019-01-16T20:48:52.248Z,8.80
2019-01-16T20:51:22.697Z,7.73
2019-01-16T20:53:54.530Z,8.57
2019-01-16T20:56:24.996Z,7.90
2019-01-16T20:58:55.911Z,8.30
2019-01-16T21:01:27.935Z,9.00
2019-01-16T21:04:00.803Z,7.60
2019-01-16T21:06:31.404Z,7.97
2019-01-16T21:09:04.014Z,8.17
2019-01-16T21:11:34.510Z,8.53
2019-01-16T21:14:07.557Z,8.77
2019-01-16T21:16:38.134Z,8.00
2019-01-16T21:19:09.046Z,8.80
2019-01-16T21:21:39.468Z,9.27
2019-01-16T21:24:10.362Z,9.70
2019-01-16T21:26:40.989Z,9.90
2019-01-16T21:29:14.161Z,8.60
2019-01-16T21:31:44.992Z,9.90
2019-01-16T21:34:15.554Z,10.40
2019-01-16T21:36:46.234Z,8.70
2019-01-16T21:39:18.037Z,9.70
2019-01-16T21:41:48.671Z,9.93
2019-01-16T21:44:19.388Z,12.10
2019-01-16T21:46:49.915Z,10.67
2019-01-16T21:49:20.594Z,11.07
2019-01-16T21:51:52.750Z,11.10
2019-01-16T21:54:23.446Z,10.27
2019-01-16T21:56:53.860Z,11.60
2019-01-16T21:59:24.552Z,11.40
2019-01-16T22:01:55.172Z,11.60
2019-01-16T22:04:25.770Z,10.57
2019-01-16T22:06:56.899Z,10.23
2019-01-16T22:09:31.438Z,9.17
2019-01-16T22:12:00.454Z,10.40
2019-01-16T22:14:31.675Z,9.70
2019-01-16T22:17:02.190Z,11.13
2019-01-16T22:19:33.968Z,10.83
2019-01-16T22:22:04.444Z,12.07
2019-01-16T22:24:34.502Z,9.70
2019-01-16T22:27:04.979Z,10.57
2019-01-16T22:29:35.483Z,10.50
2019-01-16T22:32:06.223Z,9.40
2019-01-16T22:34:36.768Z,11.23
2019-01-16T22:37:07.464Z,10.20
2019-01-16T22:39:37.882Z,8.70
2019-01-16T22:42:08.634Z,9.67
2019-01-16T22:44:39.063Z,10.30
2019-01-16T22:47:09.570Z,8.60
2019-01-16T22:49:40.046Z,8.97
2019-01-16T22:52:11.088Z,8.93
2019-01-16T22:54:41.660Z,9.80
2019-01-16T22:57:12.122Z,10.53
2019-01-16T22:59:42.965Z,9.07
2019-01-16T23:02:12.030Z,9.07
2019-01-16T23:04:42.763Z,9.30
2019-01-16T23:07:13.493Z,8.77
2019-01-16T23:09:44.042Z,8.20
2019-01-16T23:12:14.484Z,8.13
2019-01-16T23:14:45.081Z,8.97
2019-01-16T23:17:17.883Z,8.50
2019-01-16T23:19:48.437Z,9.10
2019-01-16T23:22:17.206Z,9.00
2019-01-16T23:24:47.549Z,9.80
2019-01-16T23:27:18.327Z,9.40
2019-01-16T23:29:50.419Z,8.63
2019-01-16T23:32:21.272Z,8.87
2019-01-16T23:34:51.946Z,9.20
2019-01-16T23:37:22.592Z,9.67
2019-01-16T23:39:53.149Z,10.80
2019-01-16T23:42:22.099Z,10.70
2019-01-16T23:44:52.775Z,10.03
2019-01-16T23:47:23.843Z,11.40
2019-01-16T23:49:54.294Z,12.23
2019-01-16T23:52:24.788Z,11.10
2019-01-16T23:54:55.196Z,10.77
2019-01-16T23:57:26.000Z,11.70
2019-01-16T23:59:56.556Z,10.17
